sensor_id;sensor_type;location;lat;lon;timestamp;pressure;altitude;pressure_sealevel;temperature;humidity
33859;BME280;20156;47.486;12.074;2023-07-29T00:01:14;92861.66;;;16.64;100.00
33859;BME280;20156;47.486;12.074;2023-07-29T00:03:40;92878.66;;;16.66;100.00
33859;BME280;20156;47.486;12.074;2023-07-29T00:06:06;92974.25;;;16.65;100.00
33859;BME280;20156;47.486;12.074;2023-07-29T00:08:31;92992.94;;;16.64;100.00
33859;BME280;20156;47.486;12.074;2023-07-29T00:10:56;93003.22;;;16.60;100.00
33859;BME280;20156;47.486;12.074;2023-07-29T00:13:22;93032.50;;;16.53;100.00
33859;BME280;20156;47.486;12.074;2023-07-29T00:15:47;93054.78;;;16.42;100.00
33859;BME280;20156;47.486;12.074;2023-07-29T00:18:13;93050.69;;;16.50;100.00
33859;BME280;20156;47.486;12.074;2023-07-29T00:20:38;93059.25;;;16.55;100.00
33859;BME280;20156;47.486;12.074;2023-07-29T00:23:04;93080.91;;;16.61;100.00
33859;BME280;20156;47.486;12.074;2023-07-29T00:25:29;93087.44;;;16.50;100.00
33859;BME280;20156;47.486;12.074;2023-07-29T00:27:56;93109.53;;;16.49;100.00
33859;BME280;20156;47.486;12.074;2023-07-29T00:30:21;93129.44;;;16.50;100.00
33859;BME280;20156;47.486;12.074;2023-07-29T00:32:47;93146.34;;;16.44;100.00
33859;BME280;20156;47.486;12.074;2023-07-29T00:35:12;93157.84;;;16.48;100.00
33859;BME280;20156;47.486;12.074;2023-07-29T00:37:38;93177.84;;;16.44;100.00
33859;BME280;20156;47.486;12.074;2023-07-29T00:40:12;93204.34;;;16.29;100.00
33859;BME280;20156;47.486;12.074;2023-07-29T00:42:39;93239.00;;;16.12;100.00
33859;BME280;20156;47.486;12.074;2023-07-29T00:45:05;93229.56;;;16.30;100.00
33859;BME280;20156;47.486;12.074;2023-07-29T00:47:32;93239.81;;;16.26;100.00
33859;BME280;20156;47.486;12.074;2023-07-29T00:49:58;93237.00;;;16.22;100.00
33859;BME280;20156;47.486;12.074;2023-07-29T00:52:23;93254.50;;;16.27;100.00
33859;BME280;20156;47.486;12.074;2023-07-29T00:54:49;93248.47;;;16.27;100.00
33859;BME280;20156;47.486;12.074;2023-07-29T00:57:15;93239.66;;;16.36;100.00
33859;BME280;20156;47.486;12.074;2023-07-29T00:59:41;93243.38;;;16.35;100.00
33859;BME280;20156;47.486;12.074;2023-07-29T01:02:07;93244.00;;;16.27;100.00
33859;BME280;20156;47.486;12.074;2023-07-29T01:04:33;93239.13;;;16.20;100.00
33859;BME280;20156;47.486;12.074;2023-07-29T01:10:03;93230.59;;;16.29;100.00
33859;BME280;20156;47.486;12.074;2023-07-29T01:12:54;93234.50;;;16.31;100.00
33859;BME280;20156;47.486;12.074;2023-07-29T01:15:28;93247.91;;;16.30;100.00
33859;BME280;20156;47.486;12.074;2023-07-29T01:18:18;93255.44;;;16.17;100.00
33859;BME280;20156;47.486;12.074;2023-07-29T01:20:46;93265.88;;;16.22;100.00
33859;BME280;20156;47.486;12.074;2023-07-29T01:23:13;93256.63;;;16.25;100.00
33859;BME280;20156;47.486;12.074;2023-07-29T01:25:38;93271.81;;;16.28;100.00
33859;BME280;20156;47.486;12.074;2023-07-29T01:28:04;93271.53;;;16.30;100.00
33859;BME280;20156;47.486;12.074;2023-07-29T01:30:38;93274.03;;;16.21;100.00
33859;BME280;20156;47.486;12.074;2023-07-29T01:33:14;93290.53;;;16.21;100.00
33859;BME280;20156;47.486;12.074;2023-07-29T01:36:04;93325.03;;;16.15;100.00
33859;BME280;20156;47.486;12.074;2023-07-29T01:38:36;93326.09;;;16.14;100.00
33859;BME280;20156;47.486;12.074;2023-07-29T01:41:04;93341.31;;;16.12;100.00
33859;BME280;20156;47.486;12.074;2023-07-29T01:43:31;93357.56;;;16.14;100.00
33859;BME280;20156;47.486;12.074;2023-07-29T01:45:57;93395.69;;;16.06;100.00
33859;BME280;20156;47.486;12.074;2023-07-29T01:48:24;93423.50;;;16.07;100.00
33859;BME280;20156;47.486;12.074;2023-07-29T01:50:49;93448.16;;;16.06;100.00
33859;BME280;20156;47.486;12.074;2023-07-29T01:53:14;93445.25;;;16.08;100.00
33859;BME280;20156;47.486;12.074;2023-07-29T01:55:41;93449.72;;;16.07;100.00
33859;BME280;20156;47.486;12.074;2023-07-29T01:58:06;93476.88;;;15.98;100.00
33859;BME280;20156;47.486;12.074;2023-07-29T02:00:32;93469.78;;;15.98;100.00
33859;BME280;20156;47.486;12.074;2023-07-29T02:02:57;93486.91;;;15.90;100.00
33859;BME280;20156;47.486;12.074;2023-07-29T02:05:23;93470.59;;;15.93;100.00
33859;BME280;20156;47.486;12.074;2023-07-29T02:07:48;93444.94;;;15.90;100.00
33859;BME280;20156;47.486;12.074;2023-07-29T02:10:14;93421.25;;;15.95;100.00
33859;BME280;20156;47.486;12.074;2023-07-29T02:12:39;93411.84;;;15.94;100.00
33859;BME280;20156;47.486;12.074;2023-07-29T02:15:05;93400.25;;;16.01;100.00
33859;BME280;20156;47.486;12.074;2023-07-29T02:17:31;93385.38;;;16.15;100.00
33859;BME280;20156;47.486;12.074;2023-07-29T02:19:58;93398.13;;;16.21;100.00
33859;BME280;20156;47.486;12.074;2023-07-29T02:22:23;93422.38;;;16.13;100.00
33859;BME280;20156;47.486;12.074;2023-07-29T02:24:48;93455.25;;;16.06;100.00
33859;BME280;20156;47.486;12.074;2023-07-29T02:27:14;93487.41;;;15.92;100.00
33859;BME280;20156;47.486;12.074;2023-07-29T02:29:39;93481.06;;;15.99;100.00
33859;BME280;20156;47.486;12.074;2023-07-29T02:32:05;93510.09;;;15.78;100.00
33859;BME280;20156;47.486;12.074;2023-07-29T02:34:30;93512.47;;;15.80;100.00
33859;BME280;20156;47.486;12.074;2023-07-29T02:36:56;93495.00;;;15.94;100.00
33859;BME280;20156;47.486;12.074;2023-07-29T02:39:21;93511.50;;;15.94;100.00
33859;BME280;20156;47.486;12.074;2023-07-29T02:41:48;93525.75;;;15.88;100.00
33859;BME280;20156;47.486;12.074;2023-07-29T02:44:14;93530.28;;;15.78;100.00
33859;BME280;20156;47.486;12.074;2023-07-29T02:46:39;93532.59;;;15.84;100.00
33859;BME280;20156;47.486;12.074;2023-07-29T02:49:04;93530.44;;;15.91;100.00
33859;BME280;20156;47.486;12.074;2023-07-29T02:51:30;93519.84;;;16.02;100.00
33859;BME280;20156;47.486;12.074;2023-07-29T02:53:56;93533.34;;;15.90;100.00
33859;BME280;20156;47.486;12.074;2023-07-29T02:56:21;93533.34;;;15.90;100.00
33859;BME280;20156;47.486;12.074;2023-07-29T02:58:47;93533.03;;;15.97;100.00
33859;BME280;20156;47.486;12.074;2023-07-29T03:01:12;93539.56;;;15.94;100.00
33859;BME280;20156;47.486;12.074;2023-07-29T03:03:39;93562.13;;;15.95;100.00
33859;BME280;20156;47.486;12.074;2023-07-29T03:06:07;93581.53;;;15.99;100.00
33859;BME280;20156;47.486;12.074;2023-07-29T03:08:32;93590.44;;;15.98;100.00
33859;BME280;20156;47.486;12.074;2023-07-29T03:10:58;93594.66;;;15.94;100.00
33859;BME280;20156;47.486;12.074;2023-07-29T03:13:24;93608.63;;;15.89;100.00
33859;BME280;20156;47.486;12.074;2023-07-29T03:15:51;93592.00;;;15.99;100.00
33859;BME280;20156;47.486;12.074;2023-07-29T03:18:16;93588.59;;;15.99;100.00
33859;BME280;20156;47.486;12.074;2023-07-29T03:20:42;93583.88;;;16.01;100.00
33859;BME280;20156;47.486;12.074;2023-07-29T03:23:07;93568.63;;;16.03;100.00
33859;BME280;20156;47.486;12.074;2023-07-29T03:25:33;93589.66;;;15.98;100.00
33859;BME280;20156;47.486;12.074;2023-07-29T03:27:59;93641.97;;;15.84;100.00
33859;BME280;20156;47.486;12.074;2023-07-29T03:30:25;93652.91;;;15.91;100.00
33859;BME280;20156;47.486;12.074;2023-07-29T03:32:50;93643.97;;;15.97;100.00
33859;BME280;20156;47.486;12.074;2023-07-29T03:35:16;93677.31;;;15.91;100.00
33859;BME280;20156;47.486;12.074;2023-07-29T03:37:41;93656.31;;;15.91;100.00
33859;BME280;20156;47.486;12.074;2023-07-29T03:40:07;93652.91;;;15.96;100.00
33859;BME280;20156;47.486;12.074;2023-07-29T03:42:34;93630.25;;;16.05;100.00
33859;BME280;20156;47.486;12.074;2023-07-29T03:45:00;93620.38;;;15.92;100.00
33859;BME280;20156;47.486;12.074;2023-07-29T03:47:25;93609.91;;;15.92;100.00
33859;BME280;20156;47.486;12.074;2023-07-29T03:49:51;93592.31;;;15.92;100.00
33859;BME280;20156;47.486;12.074;2023-07-29T03:52:16;93596.41;;;15.75;100.00
33859;BME280;20156;47.486;12.074;2023-07-29T03:54:42;93597.78;;;15.67;100.00
33859;BME280;20156;47.486;12.074;2023-07-29T03:57:07;93598.75;;;15.76;100.00
33859;BME280;20156;47.486;12.074;2023-07-29T03:59:32;93591.88;;;15.85;100.00
33859;BME280;20156;47.486;12.074;2023-07-29T04:01:58;93593.34;;;15.97;100.00
33859;BME280;20156;47.486;12.074;2023-07-29T04:04:23;93603.00;;;16.01;100.00
33859;BME280;20156;47.486;12.074;2023-07-29T04:06:49;93625.84;;;16.01;100.00
33859;BME280;20156;47.486;12.074;2023-07-29T04:09:14;93641.75;;;16.09;100.00
33859;BME280;20156;47.486;12.074;2023-07-29T04:11:40;93664.69;;;15.99;100.00
33859;BME280;20156;47.486;12.074;2023-07-29T04:14:05;93672.63;;;15.88;100.00
33859;BME280;20156;47.486;12.074;2023-07-29T04:16:30;93661.06;;;15.89;100.00
33859;BME280;20156;47.486;12.074;2023-07-29T04:18:56;93656.81;;;15.99;100.00
33859;BME280;20156;47.486;12.074;2023-07-29T04:21:21;93644.41;;;16.04;100.00
33859;BME280;20156;47.486;12.074;2023-07-29T04:23:47;93647.25;;;16.13;100.00
33859;BME280;20156;47.486;12.074;2023-07-29T04:26:12;93648.81;;;16.14;100.00
33859;BME280;20156;47.486;12.074;2023-07-29T04:28:37;93645.91;;;16.15;100.00
33859;BME280;20156;47.486;12.074;2023-07-29T04:31:03;93635.28;;;16.25;100.00
33859;BME280;20156;47.486;12.074;2023-07-29T04:33:31;93654.94;;;16.28;100.00
33859;BME280;20156;47.486;12.074;2023-07-29T04:35:57;93678.53;;;16.33;100.00
33859;BME280;20156;47.486;12.074;2023-07-29T04:38:30;93697.94;;;16.37;100.00
33859;BME280;20156;47.486;12.074;2023-07-29T04:40:55;93716.44;;;16.51;100.00
33859;BME280;20156;47.486;12.074;2023-07-29T04:43:21;93739.91;;;16.37;100.00
33859;BME280;20156;47.486;12.074;2023-07-29T04:45:46;93720.72;;;16.42;100.00
33859;BME280;20156;47.486;12.074;2023-07-29T04:48:11;93710.41;;;16.50;100.00
33859;BME280;20156;47.486;12.074;2023-07-29T04:50:37;93710.63;;;16.54;100.00
33859;BME280;20156;47.486;12.074;2023-07-29T04:53:02;93713.41;;;16.63;100.00
33859;BME280;20156;47.486;12.074;2023-07-29T04:55:28;93701.50;;;16.75;100.00
33859;BME280;20156;47.486;12.074;2023-07-29T04:57:53;93695.44;;;16.80;100.00
33859;BME280;20156;47.486;12.074;2023-07-29T05:00:19;93708.94;;;16.68;100.00
33859;BME280;20156;47.486;12.074;2023-07-29T05:02:44;93706.81;;;16.70;100.00
33859;BME280;20156;47.486;12.074;2023-07-29T05:05:10;93700.22;;;16.73;100.00
33859;BME280;20156;47.486;12.074;2023-07-29T05:07:35;93679.22;;;16.73;100.00
33859;BME280;20156;47.486;12.074;2023-07-29T05:10:00;93659.03;;;16.92;100.00
33859;BME280;20156;47.486;12.074;2023-07-29T05:12:26;93649.28;;;16.98;100.00
33859;BME280;20156;47.486;12.074;2023-07-29T05:14:51;93641.59;;;17.01;100.00
33859;BME280;20156;47.486;12.074;2023-07-29T05:17:17;93639.69;;;17.07;100.00
33859;BME280;20156;47.486;12.074;2023-07-29T05:19:42;93634.44;;;17.26;100.00
33859;BME280;20156;47.486;12.074;2023-07-29T05:22:07;93636.44;;;17.34;100.00
33859;BME280;20156;47.486;12.074;2023-07-29T05:24:33;93658.38;;;17.24;100.00
33859;BME280;20156;47.486;12.074;2023-07-29T05:26:58;93670.75;;;17.24;100.00
33859;BME280;20156;47.486;12.074;2023-07-29T05:29:24;93677.28;;;17.45;100.00
33859;BME280;20156;47.486;12.074;2023-07-29T05:31:49;93678.09;;;17.64;100.00
33859;BME280;20156;47.486;12.074;2023-07-29T05:34:14;93686.72;;;17.70;100.00
33859;BME280;20156;47.486;12.074;2023-07-29T05:36:40;93695.88;;;17.72;100.00
33859;BME280;20156;47.486;12.074;2023-07-29T05:39:06;93707.19;;;17.73;100.00
33859;BME280;20156;47.486;12.074;2023-07-29T05:41:32;93717.72;;;17.73;100.00
33859;BME280;20156;47.486;12.074;2023-07-29T05:43:57;93707.06;;;17.83;100.00
33859;BME280;20156;47.486;12.074;2023-07-29T05:46:23;93712.16;;;17.93;100.00
33859;BME280;20156;47.486;12.074;2023-07-29T05:48:48;93726.09;;;17.94;100.00
33859;BME280;20156;47.486;12.074;2023-07-29T05:51:14;93730.22;;;18.00;100.00
33859;BME280;20156;47.486;12.074;2023-07-29T05:53:39;93726.63;;;18.10;100.00
33859;BME280;20156;47.486;12.074;2023-07-29T05:56:04;93746.44;;;18.07;100.00
33859;BME280;20156;47.486;12.074;2023-07-29T05:58:30;93737.44;;;18.27;100.00
33859;BME280;20156;47.486;12.074;2023-07-29T06:00:57;93759.75;;;18.29;100.00
33859;BME280;20156;47.486;12.074;2023-07-29T06:03:22;93776.81;;;18.18;100.00
33859;BME280;20156;47.486;12.074;2023-07-29T06:05:49;93767.81;;;18.38;100.00
33859;BME280;20156;47.486;12.074;2023-07-29T06:08:14;93786.81;;;18.35;100.00
33859;BME280;20156;47.486;12.074;2023-07-29T06:10:40;93832.16;;;18.32;100.00
33859;BME280;20156;47.486;12.074;2023-07-29T06:13:05;93872.50;;;18.46;100.00
33859;BME280;20156;47.486;12.074;2023-07-29T06:15:31;93866.97;;;18.48;100.00
33859;BME280;20156;47.486;12.074;2023-07-29T06:17:56;93858.06;;;18.44;100.00
33859;BME280;20156;47.486;12.074;2023-07-29T06:20:22;93849.81;;;18.50;100.00
33859;BME280;20156;47.486;12.074;2023-07-29T06:22:47;93844.34;;;18.66;100.00
33859;BME280;20156;47.486;12.074;2023-07-29T06:25:12;93823.25;;;18.66;100.00
33859;BME280;20156;47.486;12.074;2023-07-29T06:27:38;93823.78;;;18.62;100.00
33859;BME280;20156;47.486;12.074;2023-07-29T06:30:04;93809.91;;;18.76;100.00
33859;BME280;20156;47.486;12.074;2023-07-29T06:32:29;93808.97;;;18.85;100.00
33859;BME280;20156;47.486;12.074;2023-07-29T06:34:55;93808.53;;;19.24;100.00
33859;BME280;20156;47.486;12.074;2023-07-29T06:37:20;93827.47;;;19.27;100.00
33859;BME280;20156;47.486;12.074;2023-07-29T06:39:46;93817.81;;;19.22;100.00
33859;BME280;20156;47.486;12.074;2023-07-29T06:42:11;93839.53;;;19.33;100.00
33859;BME280;20156;47.486;12.074;2023-07-29T06:44:36;93843.66;;;19.06;100.00
33859;BME280;20156;47.486;12.074;2023-07-29T06:47:02;93884.72;;;18.93;100.00
33859;BME280;20156;47.486;12.074;2023-07-29T06:49:27;93870.28;;;18.91;100.00
33859;BME280;20156;47.486;12.074;2023-07-29T06:51:53;93813.66;;;18.88;100.00
33859;BME280;20156;47.486;12.074;2023-07-29T06:54:18;93786.25;;;19.03;100.00
33859;BME280;20156;47.486;12.074;2023-07-29T06:56:43;93772.88;;;19.00;100.00
33859;BME280;20156;47.486;12.074;2023-07-29T06:59:09;93716.44;;;19.01;100.00
33859;BME280;20156;47.486;12.074;2023-07-29T07:01:34;93679.13;;;18.93;100.00
33859;BME280;20156;47.486;12.074;2023-07-29T07:04:00;93663.81;;;19.09;100.00
33859;BME280;20156;47.486;12.074;2023-07-29T07:06:25;93705.09;;;19.14;100.00
33859;BME280;20156;47.486;12.074;2023-07-29T07:08:51;93757.56;;;19.02;100.00
33859;BME280;20156;47.486;12.074;2023-07-29T07:11:18;93747.97;;;19.06;100.00
33859;BME280;20156;47.486;12.074;2023-07-29T07:13:44;93704.91;;;19.10;100.00
33859;BME280;20156;47.486;12.074;2023-07-29T07:16:09;93674.44;;;19.18;100.00
33859;BME280;20156;47.486;12.074;2023-07-29T07:18:34;93727.06;;;19.09;100.00
33859;BME280;20156;47.486;12.074;2023-07-29T07:21:00;93692.00;;;19.36;100.00
33859;BME280;20156;47.486;12.074;2023-07-29T07:23:25;93686.94;;;19.26;100.00
33859;BME280;20156;47.486;12.074;2023-07-29T07:25:51;93723.06;;;19.26;100.00
33859;BME280;20156;47.486;12.074;2023-07-29T07:28:16;93801.94;;;18.94;100.00
33859;BME280;20156;47.486;12.074;2023-07-29T07:30:41;93805.00;;;19.02;100.00
33859;BME280;20156;47.486;12.074;2023-07-29T07:33:07;93827.38;;;19.04;100.00
33859;BME280;20156;47.486;12.074;2023-07-29T07:35:33;93863.03;;;18.83;100.00
33859;BME280;20156;47.486;12.074;2023-07-29T07:37:58;93817.38;;;18.87;100.00
33859;BME280;20156;47.486;12.074;2023-07-29T07:40:26;93784.09;;;19.05;100.00
33859;BME280;20156;47.486;12.074;2023-07-29T07:42:52;93757.34;;;19.12;100.00
33859;BME280;20156;47.486;12.074;2023-07-29T07:45:17;93675.50;;;19.31;100.00
33859;BME280;20156;47.486;12.074;2023-07-29T07:47:43;93604.41;;;19.48;100.00
33859;BME280;20156;47.486;12.074;2023-07-29T07:50:09;93584.69;;;19.59;100.00
33859;BME280;20156;47.486;12.074;2023-07-29T07:52:34;93613.00;;;19.67;100.00
33859;BME280;20156;47.486;12.074;2023-07-29T07:55:00;93637.53;;;19.90;100.00
33859;BME280;20156;47.486;12.074;2023-07-29T07:57:25;93702.97;;;19.79;100.00
33859;BME280;20156;47.486;12.074;2023-07-29T07:59:50;93736.94;;;19.95;100.00
33859;BME280;20156;47.486;12.074;2023-07-29T08:02:17;93747.31;;;20.05;100.00
33859;BME280;20156;47.486;12.074;2023-07-29T08:04:43;93797.03;;;19.75;100.00
33859;BME280;20156;47.486;12.074;2023-07-29T08:07:08;93812.38;;;19.87;100.00
33859;BME280;20156;47.486;12.074;2023-07-29T08:09:34;93806.28;;;20.00;100.00
33859;BME280;20156;47.486;12.074;2023-07-29T08:11:59;93808.16;;;19.86;100.00
33859;BME280;20156;47.486;12.074;2023-07-29T08:14:25;93769.53;;;19.90;100.00
33859;BME280;20156;47.486;12.074;2023-07-29T08:16:51;93757.81;;;20.19;100.00
33859;BME280;20156;47.486;12.074;2023-07-29T08:19:17;93739.16;;;20.37;100.00
33859;BME280;20156;47.486;12.074;2023-07-29T08:21:42;93820.28;;;20.37;100.00
33859;BME280;20156;47.486;12.074;2023-07-29T08:24:08;93863.91;;;20.48;100.00
33859;BME280;20156;47.486;12.074;2023-07-29T08:26:33;93938.09;;;20.38;100.00
33859;BME280;20156;47.486;12.074;2023-07-29T08:28:59;93905.50;;;20.56;100.00
33859;BME280;20156;47.486;12.074;2023-07-29T08:31:24;93959.16;;;20.79;100.00
33859;BME280;20156;47.486;12.074;2023-07-29T08:33:49;94046.41;;;20.79;100.00
33859;BME280;20156;47.486;12.074;2023-07-29T08:36:15;94097.53;;;20.88;100.00
33859;BME280;20156;47.486;12.074;2023-07-29T08:38:41;94061.72;;;21.32;100.00
33859;BME280;20156;47.486;12.074;2023-07-29T08:41:24;94127.69;;;21.15;100.00
33859;BME280;20156;47.486;12.074;2023-07-29T08:43:56;94123.94;;;21.43;100.00
33859;BME280;20156;47.486;12.074;2023-07-29T08:46:24;94110.84;;;21.11;100.00
33859;BME280;20156;47.486;12.074;2023-07-29T08:48:49;94089.28;;;21.17;100.00
33859;BME280;20156;47.486;12.074;2023-07-29T08:51:16;94041.06;;;21.56;100.00
33859;BME280;20156;47.486;12.074;2023-07-29T08:53:42;94141.38;;;21.44;100.00
33859;BME280;20156;47.486;12.074;2023-07-29T08:56:08;94030.56;;;22.18;100.00
33859;BME280;20156;47.486;12.074;2023-07-29T08:58:34;94164.41;;;22.38;100.00
33859;BME280;20156;47.486;12.074;2023-07-29T09:01:00;94071.91;;;22.68;100.00
33859;BME280;20156;47.486;12.074;2023-07-29T09:03:26;94101.97;;;22.55;100.00
33859;BME280;20156;47.486;12.074;2023-07-29T09:05:52;94131.44;;;22.53;100.00
33859;BME280;20156;47.486;12.074;2023-07-29T09:08:18;94173.28;;;22.11;100.00
33859;BME280;20156;47.486;12.074;2023-07-29T09:10:44;94157.00;;;22.04;100.00
33859;BME280;20156;47.486;12.074;2023-07-29T09:13:09;94135.25;;;22.16;100.00
33859;BME280;20156;47.486;12.074;2023-07-29T09:15:36;94223.53;;;22.03;100.00
33859;BME280;20156;47.486;12.074;2023-07-29T09:18:14;94162.38;;;22.35;100.00
33859;BME280;20156;47.486;12.074;2023-07-29T09:20:40;94085.75;;;22.56;100.00
33859;BME280;20156;47.486;12.074;2023-07-29T09:23:08;94026.44;;;22.92;100.00
33859;BME280;20156;47.486;12.074;2023-07-29T09:25:34;94055.19;;;23.07;100.00
33859;BME280;20156;47.486;12.074;2023-07-29T09:28:01;94093.44;;;23.06;100.00
33859;BME280;20156;47.486;12.074;2023-07-29T09:30:27;94055.63;;;23.00;100.00
33859;BME280;20156;47.486;12.074;2023-07-29T09:32:57;94045.09;;;22.78;100.00
33859;BME280;20156;47.486;12.074;2023-07-29T09:35:24;94010.31;;;22.71;100.00
33859;BME280;20156;47.486;12.074;2023-07-29T09:37:51;93915.63;;;22.89;100.00
33859;BME280;20156;47.486;12.074;2023-07-29T09:40:17;93930.00;;;22.88;100.00
33859;BME280;20156;47.486;12.074;2023-07-29T09:42:54;94099.16;;;22.91;100.00
33859;BME280;20156;47.486;12.074;2023-07-29T09:45:24;94179.69;;;22.86;100.00
33859;BME280;20156;47.486;12.074;2023-07-29T09:47:51;94077.72;;;22.78;100.00
33859;BME280;20156;47.486;12.074;2023-07-29T09:50:17;94161.88;;;22.87;100.00
33859;BME280;20156;47.486;12.074;2023-07-29T09:52:43;94237.59;;;23.24;100.00
33859;BME280;20156;47.486;12.074;2023-07-29T09:55:13;94206.13;;;23.08;100.00
33859;BME280;20156;47.486;12.074;2023-07-29T09:57:42;94204.81;;;22.89;100.00
33859;BME280;20156;47.486;12.074;2023-07-29T10:00:10;94172.81;;;22.85;100.00
33859;BME280;20156;47.486;12.074;2023-07-29T10:02:42;94218.16;;;23.15;100.00
33859;BME280;20156;47.486;12.074;2023-07-29T10:05:08;94248.06;;;23.68;100.00
33859;BME280;20156;47.486;12.074;2023-07-29T10:07:36;94329.22;;;23.52;100.00
33859;BME280;20156;47.486;12.074;2023-07-29T10:10:03;94357.84;;;23.95;100.00
33859;BME280;20156;47.486;12.074;2023-07-29T10:12:31;94423.34;;;23.99;100.00
33859;BME280;20156;47.486;12.074;2023-07-29T10:14:59;94485.50;;;23.81;100.00
33859;BME280;20156;47.486;12.074;2023-07-29T10:17:26;94470.94;;;24.10;100.00
33859;BME280;20156;47.486;12.074;2023-07-29T10:19:51;94452.22;;;24.72;100.00
33859;BME280;20156;47.486;12.074;2023-07-29T10:22:20;94497.75;;;24.62;100.00
33859;BME280;20156;47.486;12.074;2023-07-29T10:24:46;94605.31;;;25.09;100.00
33859;BME280;20156;47.486;12.074;2023-07-29T10:27:16;94603.34;;;24.92;100.00
33859;BME280;20156;47.486;12.074;2023-07-29T10:29:43;94665.22;;;24.36;100.00
33859;BME280;20156;47.486;12.074;2023-07-29T10:32:11;94631.31;;;24.41;100.00
33859;BME280;20156;47.486;12.074;2023-07-29T10:34:37;94580.75;;;25.21;100.00
33859;BME280;20156;47.486;12.074;2023-07-29T10:37:03;94702.38;;;24.72;100.00
33859;BME280;20156;47.486;12.074;2023-07-29T10:39:38;94692.53;;;24.50;100.00
33859;BME280;20156;47.486;12.074;2023-07-29T10:42:06;94651.50;;;25.04;100.00
33859;BME280;20156;47.486;12.074;2023-07-29T10:49:48;94694.28;;;25.56;100.00
33859;BME280;20156;47.486;12.074;2023-07-29T10:52:15;94700.00;;;26.06;100.00
33859;BME280;20156;47.486;12.074;2023-07-29T10:54:45;94710.50;;;25.86;100.00
33859;BME280;20156;47.486;12.074;2023-07-29T10:57:30;94768.91;;;25.65;100.00
33859;BME280;20156;47.486;12.074;2023-07-29T10:59:57;94697.91;;;25.69;100.00
33859;BME280;20156;47.486;12.074;2023-07-29T11:02:29;94740.56;;;25.69;100.00
33859;BME280;20156;47.486;12.074;2023-07-29T11:04:55;94675.03;;;25.68;100.00
33859;BME280;20156;47.486;12.074;2023-07-29T11:07:21;94673.66;;;26.40;100.00
33859;BME280;20156;47.486;12.074;2023-07-29T11:09:52;94695.13;;;26.17;100.00
33859;BME280;20156;47.486;12.074;2023-07-29T11:12:44;94741.56;;;25.90;100.00
33859;BME280;20156;47.486;12.074;2023-07-29T11:15:22;94733.13;;;26.57;100.00
33859;BME280;20156;47.486;12.074;2023-07-29T11:17:58;94779.44;;;26.53;100.00
33859;BME280;20156;47.486;12.074;2023-07-29T11:20:29;94706.59;;;26.61;100.00
33859;BME280;20156;47.486;12.074;2023-07-29T11:22:57;94643.34;;;26.44;100.00
33859;BME280;20156;47.486;12.074;2023-07-29T11:25:24;94593.25;;;26.50;100.00
33859;BME280;20156;47.486;12.074;2023-07-29T11:27:52;94714.09;;;26.67;100.00
33859;BME280;20156;47.486;12.074;2023-07-29T11:30:18;94669.91;;;26.06;100.00
33859;BME280;20156;47.486;12.074;2023-07-29T11:32:45;94684.00;;;26.24;100.00
33859;BME280;20156;47.486;12.074;2023-07-29T11:37:38;94686.38;;;26.43;100.00
33859;BME280;20156;47.486;12.074;2023-07-29T11:40:04;94731.59;;;26.39;100.00
33859;BME280;20156;47.486;12.074;2023-07-29T11:42:32;94748.81;;;26.67;100.00
33859;BME280;20156;47.486;12.074;2023-07-29T11:44:59;94708.56;;;26.90;100.00
33859;BME280;20156;47.486;12.074;2023-07-29T11:47:25;94759.78;;;26.92;100.00
33859;BME280;20156;47.486;12.074;2023-07-29T11:49:51;94785.25;;;26.72;100.00
33859;BME280;20156;47.486;12.074;2023-07-29T11:52:18;94784.75;;;26.70;100.00
33859;BME280;20156;47.486;12.074;2023-07-29T11:54:46;94768.06;;;27.16;100.00
33859;BME280;20156;47.486;12.074;2023-07-29T11:57:12;94784.63;;;26.58;100.00
33859;BME280;20156;47.486;12.074;2023-07-29T11:59:39;94721.31;;;26.76;100.00
33859;BME280;20156;47.486;12.074;2023-07-29T12:02:07;94720.66;;;27.05;100.00
33859;BME280;20156;47.486;12.074;2023-07-29T12:04:36;94719.50;;;27.14;100.00
33859;BME280;20156;47.486;12.074;2023-07-29T12:07:03;94714.91;;;26.59;100.00
33859;BME280;20156;47.486;12.074;2023-07-29T12:09:28;94705.28;;;26.84;100.00
33859;BME280;20156;47.486;12.074;2023-07-29T12:11:55;94654.34;;;27.07;100.00
33859;BME280;20156;47.486;12.074;2023-07-29T12:14:20;94685.75;;;27.10;100.00
33859;BME280;20156;47.486;12.074;2023-07-29T12:16:48;94683.03;;;26.63;100.00
33859;BME280;20156;47.486;12.074;2023-07-29T12:19:14;94778.78;;;26.13;100.00
33859;BME280;20156;47.486;12.074;2023-07-29T12:21:41;94729.31;;;25.81;100.00
33859;BME280;20156;47.486;12.074;2023-07-29T12:24:07;94722.47;;;26.23;100.00
33859;BME280;20156;47.486;12.074;2023-07-29T12:26:33;94766.03;;;26.01;100.00
33859;BME280;20156;47.486;12.074;2023-07-29T12:29:16;94787.09;;;26.28;100.00
33859;BME280;20156;47.486;12.074;2023-07-29T12:31:42;94819.88;;;27.33;100.00
33859;BME280;20156;47.486;12.074;2023-07-29T12:34:08;94829.88;;;26.54;100.00
33859;BME280;20156;47.486;12.074;2023-07-29T12:36:48;94821.25;;;27.56;100.00
33859;BME280;20156;47.486;12.074;2023-07-29T12:41:43;94775.41;;;27.75;100.00
33859;BME280;20156;47.486;12.074;2023-07-29T12:44:08;94763.19;;;27.65;100.00
33859;BME280;20156;47.486;12.074;2023-07-29T12:46:34;94741.47;;;27.28;100.00
33859;BME280;20156;47.486;12.074;2023-07-29T12:48:59;94750.38;;;26.68;100.00
33859;BME280;20156;47.486;12.074;2023-07-29T12:51:24;94743.44;;;26.85;100.00